createdAt,value
2023-03-15T00:03:36.863Z,39
2023-03-15T00:13:43.584Z,39
2023-03-15T00:23:50.267Z,39
2023-03-15T00:33:57.042Z,39
2023-03-15T00:44:04.949Z,39
2023-03-15T00:54:11.722Z,39
2023-03-15T01:04:18.430Z,39
2023-03-15T01:14:25.163Z,39
2023-03-15T01:24:31.868Z,39
2023-03-15T01:34:38.597Z,39
2023-03-15T01:44:45.345Z,39
2023-03-15T01:54:52.064Z,39
2023-03-15T02:04:58.777Z,39
2023-03-15T02:15:06.803Z,39
2023-03-15T02:25:13.441Z,39
2023-03-15T02:35:20.181Z,39
2023-03-15T02:45:26.889Z,39
2023-03-15T02:55:33.640Z,39.5
2023-03-15T03:05:41.576Z,39.5
2023-03-15T03:15:48.328Z,39.5
2023-03-15T03:25:55.046Z,39
2023-03-15T03:36:01.814Z,39
2023-03-15T03:46:08.629Z,39.5
2023-03-15T03:56:15.224Z,39.5
2023-03-15T04:06:21.937Z,39
2023-03-15T04:16:28.713Z,39
2023-03-15T04:26:35.376Z,38.5
2023-03-15T04:36:42.124Z,38.5
2023-03-15T04:46:48.910Z,39
2023-03-15T04:56:55.582Z,39
2023-03-15T05:07:02.321Z,39
2023-03-15T05:17:09.029Z,39
2023-03-15T05:27:15.730Z,39.5
2023-03-15T05:37:22.536Z,39.5
2023-03-15T05:47:29.196Z,39.5
2023-03-15T05:57:35.920Z,39.5
2023-03-15T06:07:42.624Z,39.5
2023-03-15T06:17:49.358Z,39
2023-03-15T06:27:56.080Z,39.5
2023-03-15T06:38:04.049Z,39
2023-03-15T06:48:10.755Z,39
2023-03-15T06:58:17.514Z,39
2023-03-15T07:08:24.196Z,40
2023-03-15T07:18:30.969Z,40
2023-03-15T07:28:37.639Z,39.5
2023-03-15T07:38:46.035Z,39.5
2023-03-15T07:59:01.529Z,39.5
2023-03-15T08:09:08.226Z,39
2023-03-15T08:19:14.986Z,39
2023-03-15T08:29:21.679Z,39
2023-03-15T08:39:28.538Z,39
2023-03-15T08:49:35.127Z,39
2023-03-15T08:59:41.882Z,39
2023-03-15T09:09:48.607Z,39
2023-03-15T09:19:55.328Z,39
2023-03-15T09:30:02.033Z,39
2023-03-15T09:40:08.776Z,39.5
2023-03-15T09:50:15.489Z,39.5
2023-03-15T10:00:22.250Z,39
2023-03-15T10:10:28.913Z,39
2023-03-15T10:20:35.685Z,39
2023-03-15T10:30:42.369Z,39
2023-03-15T10:40:49.129Z,38
2023-03-15T10:50:59.051Z,38.5
2023-03-15T11:01:03.812Z,37.5
2023-03-15T11:11:10.521Z,37.5
2023-03-15T11:21:17.272Z,38
2023-03-15T11:31:24.022Z,38
2023-03-15T11:41:30.749Z,37.5
2023-03-15T11:51:38.650Z,38.5
2023-03-15T12:01:45.392Z,38.5
2023-03-15T12:11:52.088Z,38.5
2023-03-15T12:21:58.831Z,38.5
2023-03-15T12:32:05.536Z,37
2023-03-15T12:42:13.498Z,37
2023-03-15T12:52:20.233Z,36
2023-03-15T13:02:35.950Z,35.5
2023-03-15T13:12:33.652Z,35
2023-03-15T13:22:46.707Z,34.5
2023-03-15T13:32:47.167Z,33.5
2023-03-15T13:42:57.677Z,33
2023-03-15T13:53:01.801Z,32.5
2023-03-15T14:03:08.595Z,34
2023-03-15T14:13:15.228Z,35.5
2023-03-15T14:23:22.004Z,36
2023-03-15T14:33:28.688Z,36.5
2023-03-15T14:43:36.676Z,36.5
2023-03-15T14:53:43.376Z,36.5
2023-03-15T15:03:50.125Z,36.5
2023-03-15T15:13:56.815Z,36.5
2023-03-15T15:24:03.581Z,36.5
2023-03-15T15:34:11.490Z,37
2023-03-15T15:44:18.260Z,37
2023-03-15T15:54:24.927Z,37
2023-03-15T16:04:31.705Z,37
2023-03-15T16:14:38.390Z,37
2023-03-15T16:24:45.133Z,37
2023-03-15T16:34:51.859Z,37
2023-03-15T16:44:58.632Z,37
2023-03-15T16:55:05.274Z,37
2023-03-15T17:05:13.277Z,37.5
2023-03-15T17:15:19.953Z,37.5
2023-03-15T17:25:26.755Z,37
2023-03-15T17:35:33.646Z,37
2023-03-15T17:45:40.212Z,37
2023-03-15T17:55:46.899Z,37
2023-03-15T18:05:53.658Z,37
2023-03-15T18:16:00.435Z,37
2023-03-15T18:26:07.276Z,37
2023-03-15T18:36:13.942Z,37
2023-03-15T18:46:20.610Z,37.5
2023-03-15T18:56:28.477Z,37
2023-03-15T19:06:35.216Z,37
2023-03-15T19:16:41.989Z,37
2023-03-15T19:26:48.696Z,37
2023-03-15T19:36:55.381Z,37
2023-03-15T19:47:02.128Z,37
2023-03-15T19:57:08.840Z,37
2023-03-15T20:07:15.576Z,37
2023-03-15T20:17:22.265Z,37
2023-03-15T20:27:29.034Z,37
2023-03-15T20:37:35.738Z,37
2023-03-15T20:47:44.727Z,37
2023-03-15T20:57:50.846Z,37
2023-03-15T21:07:57.154Z,37
2023-03-15T21:18:03.836Z,37
2023-03-15T21:28:10.585Z,37
2023-03-15T21:38:18.529Z,37
2023-03-15T21:48:25.283Z,37
2023-03-15T22:08:39.939Z,37
2023-03-15T22:18:46.655Z,37
2023-03-15T22:28:53.431Z,37
2023-03-15T22:39:01.320Z,37
2023-03-15T22:49:09.315Z,37
2023-03-15T23:09:23.985Z,36.5
2023-03-15T23:19:31.924Z,36.5
2023-03-15T23:29:53.348Z,37
2023-03-15T23:39:45.368Z,37
2023-03-15T23:49:53.380Z,37
